Time;durP1;ratioP1;P1;durP2;ratioP2;P2;SDS_P1;SDS_P2;PMS_P1;PMS_P2;Temp;Humidity;BMP_temperature;BMP_pressure;BME280_temperature;BME280_humidity;BME280_pressure;Samples;Min_cycle;Max_cycle;Signal;HPM_P1;HPM_P2
2022/12/25 00:01:14;;;;;;;;;;;11.70;99.90;;;;;;5047374;28;19920;-75
2022/12/25 00:03:40;;;;;;;;;;;11.60;99.90;;;;;;5044739;28;19917;-77
2022/12/25 00:06:06;;;;;;;;;;;11.50;99.90;;;;;;5040389;28;20426;-74
2022/12/25 00:08:31;;;;;;;;;;;11.40;99.90;;;;;;5043579;28;19921;-74
2022/12/25 00:11:01;;;;;;;;;;;11.40;99.90;;;;;;5041495;28;20374;-74
2022/12/25 00:13:27;;;;;;;;;;;11.50;99.90;;;;;;5043564;28;19940;-74
2022/12/25 00:15:52;;;;;;;;;;;11.60;99.90;;;;;;5043333;28;20470;-75
2022/12/25 00:18:18;;;;;;;;;;;11.50;99.90;;;;;;5041110;28;19944;-75
2022/12/25 00:20:43;;;;;;;;;;;11.60;99.90;;;;;;5045745;28;19916;-74
2022/12/25 00:23:09;;;;;;;;;;;11.60;99.90;;;;;;5031006;28;19909;-74
2022/12/25 00:25:38;;;;;;;;;;;11.60;99.90;;;;;;5037177;28;19974;-73
2022/12/25 00:28:03;;;;;;;;;;;11.60;99.90;;;;;;5035945;28;20016;-73
2022/12/25 00:30:29;;;;;;;;;;;11.60;99.90;;;;;;5037180;28;20007;-73
2022/12/25 00:32:54;;;;;;;;;;;11.70;99.90;;;;;;5032130;28;19999;-75
2022/12/25 00:35:19;;;;;;;;;;;11.60;99.90;;;;;;5047925;28;20404;-75
2022/12/25 00:37:45;;;;;;;;;;;11.60;99.90;;;;;;5045777;28;19917;-75
2022/12/25 00:40:11;;;;;;;;;;;11.60;99.90;;;;;;5038912;28;20446;-74
2022/12/25 00:42:36;;;;;;;;;;;11.60;99.90;;;;;;5042569;28;19912;-75
2022/12/25 00:45:02;;;;;;;;;;;11.70;99.90;;;;;;5046598;28;19963;-74
2022/12/25 00:47:28;;;;;;;;;;;11.60;99.90;;;;;;5038786;28;20004;-74
2022/12/25 00:49:53;;;;;;;;;;;11.80;99.90;;;;;;5034474;28;19963;-74
2022/12/25 00:52:19;;;;;;;;;;;11.80;99.90;;;;;;5037248;28;19910;-75
2022/12/25 00:54:44;;;;;;;;;;;11.70;99.90;;;;;;5033685;28;19924;-74
2022/12/25 00:57:10;;;;;;;;;;;11.80;99.90;;;;;;5043298;28;19943;-76
2022/12/25 00:59:35;;;;;;;;;;;11.80;99.90;;;;;;5039262;28;19967;-75
2022/12/25 01:02:22;;;;;;;;;;;11.90;99.90;;;;;;5039087;28;19913;-74
2022/12/25 01:04:46;;;;;;;;;;;12.00;99.90;;;;;;5043041;28;19917;-76
2022/12/25 01:07:12;;;;;;;;;;;11.90;99.90;;;;;;5036637;28;19977;-75
2022/12/25 01:12:21;;;;;;;;;;;12.00;99.90;;;;;;5036300;28;20381;-75
2022/12/25 01:14:47;;;;;;;;;;;12.00;99.90;;;;;;5033223;28;19909;-74
2022/12/25 01:17:12;;;;;;;;;;;12.10;99.90;;;;;;5037974;28;19954;-75
2022/12/25 01:19:38;;;;;;;;;;;11.90;99.90;;;;;;5040528;28;19980;-73
2022/12/25 01:22:03;;;;;;;;;;;12.00;99.90;;;;;;5041596;28;19912;-74
2022/12/25 01:24:29;;;;;;;;;;;12.00;99.90;;;;;;5037139;28;19909;-73
2022/12/25 01:26:54;;;;;;;;;;;12.00;99.90;;;;;;5027643;28;19959;-75
2022/12/25 01:29:20;;;;;;;;;;;11.90;99.90;;;;;;5033048;28;20012;-75
2022/12/25 01:31:45;;;;;;;;;;;11.90;99.90;;;;;;5035200;28;19913;-73
2022/12/25 01:34:10;;;;;;;;;;;11.90;99.90;;;;;;5040278;28;20554;-73
2022/12/25 01:36:36;;;;;;;;;;;11.90;99.90;;;;;;5033464;28;19913;-73
2022/12/25 01:39:02;;;;;;;;;;;11.80;99.90;;;;;;5041391;28;19970;-72
2022/12/25 01:41:27;;;;;;;;;;;11.80;99.90;;;;;;5038413;28;19988;-74
2022/12/25 01:43:56;;;;;;;;;;;11.90;99.90;;;;;;5046643;28;19908;-75
2022/12/25 01:46:21;;;;;;;;;;;12.00;99.90;;;;;;5044114;28;19916;-76
2022/12/25 01:48:47;;;;;;;;;;;11.90;99.90;;;;;;5040051;28;19909;-75
2022/12/25 01:51:22;;;;;;;;;;;11.90;99.90;;;;;;5040067;28;19924;-74
2022/12/25 01:53:48;;;;;;;;;;;11.90;99.90;;;;;;5050280;28;19932;-75
2022/12/25 01:56:13;;;;;;;;;;;11.90;99.90;;;;;;5042296;28;20497;-74
2022/12/25 01:58:39;;;;;;;;;;;11.80;99.90;;;;;;5041780;28;20008;-74
2022/12/25 02:01:04;;;;;;;;;;;11.80;99.90;;;;;;5044891;28;19962;-74
2022/12/25 02:03:30;;;;;;;;;;;11.60;99.90;;;;;;5044917;28;19917;-74
2022/12/25 02:05:55;;;;;;;;;;;11.60;99.90;;;;;;5047596;28;19909;-73
2022/12/25 02:08:21;;;;;;;;;;;11.50;99.90;;;;;;5041037;28;19986;-74
2022/12/25 02:10:46;;;;;;;;;;;11.50;99.90;;;;;;5035537;28;19908;-74
2022/12/25 02:13:13;;;;;;;;;;;11.60;99.90;;;;;;5046361;28;19913;-75
2022/12/25 02:15:53;;;;;;;;;;;11.50;99.90;;;;;;5044546;28;20372;-73
2022/12/25 02:18:32;;;;;;;;;;;11.60;99.90;;;;;;5035500;28;19955;-74
2022/12/25 02:21:00;;;;;;;;;;;11.40;99.90;;;;;;5037050;28;20283;-75
2022/12/25 02:23:37;;;;;;;;;;;11.40;99.90;;;;;;5042667;28;19920;-72
2022/12/25 02:26:13;;;;;;;;;;;11.50;99.90;;;;;;5035719;28;20391;-74
2022/12/25 02:28:52;;;;;;;;;;;11.50;99.90;;;;;;5040585;28;20284;-75
2022/12/25 02:31:25;;;;;;;;;;;11.40;99.90;;;;;;5043614;28;20806;-75
2022/12/25 02:34:06;;;;;;;;;;;11.40;99.90;;;;;;5043189;28;19923;-74
2022/12/25 02:36:39;;;;;;;;;;;11.30;99.90;;;;;;5044322;28;19909;-75
2022/12/25 02:41:57;;;;;;;;;;;11.40;99.90;;;;;;5032286;28;20602;-75
2022/12/25 03:06:55;;;;;;;;;;;11.30;99.90;;;;;;5033253;28;19943;-74
2022/12/25 03:12:12;;;;;;;;;;;11.40;99.90;;;;;;5029989;28;20318;-76
2022/12/25 03:17:21;;;;;;;;;;;11.30;99.90;;;;;;5043356;28;19974;-75
2022/12/25 03:28:01;;;;;;;;;;;11.50;99.90;;;;;;5043148;28;19916;-73
2022/12/25 03:33:34;;;;;;;;;;;11.50;99.90;;;;;;5043730;28;20473;-74
2022/12/25 03:36:05;;;;;;;;;;;11.60;99.90;;;;;;5043652;28;20003;-73
2022/12/25 04:36:20;;;;;;;;;;;12.50;99.90;;;;;;5041910;28;20927;-73
2022/12/25 04:38:45;;;;;;;;;;;12.60;99.90;;;;;;5034221;28;19925;-75
2022/12/25 04:41:11;;;;;;;;;;;12.50;99.90;;;;;;5045404;28;20381;-74
2022/12/25 04:43:37;;;;;;;;;;;12.50;99.90;;;;;;5037177;28;19912;-75
2022/12/25 04:46:03;;;;;;;;;;;12.60;99.90;;;;;;5033087;28;20296;-72
2022/12/25 04:48:30;;;;;;;;;;;12.60;99.90;;;;;;5041076;28;19919;-73
2022/12/25 04:50:55;;;;;;;;;;;12.70;99.90;;;;;;5036209;28;19917;-74
2022/12/25 04:53:21;;;;;;;;;;;12.70;99.90;;;;;;5041954;28;19955;-74
2022/12/25 04:55:46;;;;;;;;;;;12.60;99.90;;;;;;5034431;28;20395;-73
2022/12/25 04:58:12;;;;;;;;;;;12.60;99.90;;;;;;5039705;28;19966;-75
2022/12/25 05:00:37;;;;;;;;;;;12.70;99.90;;;;;;5039730;28;20393;-73
2022/12/25 05:03:03;;;;;;;;;;;12.70;99.90;;;;;;5041635;28;19917;-75
2022/12/25 05:05:28;;;;;;;;;;;12.70;99.90;;;;;;5041843;28;19915;-74
2022/12/25 05:07:55;;;;;;;;;;;12.60;99.90;;;;;;5035048;28;20449;-75
2022/12/25 05:10:20;;;;;;;;;;;12.50;99.90;;;;;;5037729;28;19917;-73
2022/12/25 05:12:46;;;;;;;;;;;12.40;99.90;;;;;;5040526;28;19915;-73
2022/12/25 05:15:11;;;;;;;;;;;12.50;99.90;;;;;;5041235;28;19909;-74
2022/12/25 05:17:37;;;;;;;;;;;12.40;99.90;;;;;;5038663;28;20228;-74
2022/12/25 05:20:03;;;;;;;;;;;12.40;99.90;;;;;;5043053;28;19939;-73
2022/12/25 05:22:29;;;;;;;;;;;12.30;99.90;;;;;;5041056;28;19909;-73
2022/12/25 05:24:54;;;;;;;;;;;12.40;99.90;;;;;;5034468;28;20407;-75
2022/12/25 05:27:20;;;;;;;;;;;12.40;99.90;;;;;;5032061;28;19913;-74
2022/12/25 05:29:45;;;;;;;;;;;12.40;99.90;;;;;;5036067;28;19924;-74
2022/12/25 05:32:11;;;;;;;;;;;12.30;99.90;;;;;;5033872;28;19921;-76
2022/12/25 05:34:37;;;;;;;;;;;12.30;99.90;;;;;;5035973;28;19912;-74
2022/12/25 05:37:02;;;;;;;;;;;12.30;99.90;;;;;;5041791;28;20494;-74
2022/12/25 05:39:27;;;;;;;;;;;12.40;99.90;;;;;;5041080;28;19962;-74
2022/12/25 05:41:53;;;;;;;;;;;12.40;99.90;;;;;;5043775;28;19921;-74
2022/12/25 05:44:18;;;;;;;;;;;12.50;99.90;;;;;;5035632;28;20773;-74
2022/12/25 05:46:44;;;;;;;;;;;12.50;99.90;;;;;;5034125;28;19916;-74
2022/12/25 05:49:10;;;;;;;;;;;12.50;99.90;;;;;;5035785;28;19928;-74
2022/12/25 05:51:35;;;;;;;;;;;12.60;99.90;;;;;;5033474;28;19909;-74
2022/12/25 05:54:01;;;;;;;;;;;12.50;99.90;;;;;;5039507;28;20466;-75
2022/12/25 05:56:26;;;;;;;;;;;12.60;99.90;;;;;;5044171;28;20321;-73
2022/12/25 05:58:52;;;;;;;;;;;12.50;99.90;;;;;;5041461;28;19917;-73
2022/12/25 06:01:19;;;;;;;;;;;12.50;99.90;;;;;;5044324;28;20007;-76
2022/12/25 06:03:45;;;;;;;;;;;12.50;99.90;;;;;;5031201;28;20284;-74
2022/12/25 06:06:10;;;;;;;;;;;12.60;99.90;;;;;;5042844;28;19920;-73
2022/12/25 06:08:36;;;;;;;;;;;12.60;99.90;;;;;;5039714;28;19996;-74
2022/12/25 06:11:03;;;;;;;;;;;12.50;99.90;;;;;;5040430;28;19913;-75
2022/12/25 06:13:29;;;;;;;;;;;12.60;99.90;;;;;;5045781;28;19955;-74
2022/12/25 06:15:54;;;;;;;;;;;12.70;99.90;;;;;;5048538;28;19913;-74
2022/12/25 06:18:20;;;;;;;;;;;12.70;99.90;;;;;;5047234;28;20295;-76
2022/12/25 06:20:45;;;;;;;;;;;12.70;99.90;;;;;;5032184;28;19916;-74
2022/12/25 06:23:10;;;;;;;;;;;12.80;99.90;;;;;;5040318;28;19917;-74
2022/12/25 06:25:39;;;;;;;;;;;12.80;99.90;;;;;;5041171;28;19915;-75
2022/12/25 06:28:05;;;;;;;;;;;12.80;99.90;;;;;;5042535;28;20011;-76
2022/12/25 06:30:31;;;;;;;;;;;12.80;99.90;;;;;;5047728;28;19909;-74
2022/12/25 06:32:58;;;;;;;;;;;12.80;99.90;;;;;;5051235;28;19912;-73
2022/12/25 06:35:23;;;;;;;;;;;12.90;99.90;;;;;;5044175;28;19936;-74
2022/12/25 06:37:49;;;;;;;;;;;13.00;99.90;;;;;;5044931;28;20338;-74
2022/12/25 06:40:14;;;;;;;;;;;13.00;99.90;;;;;;5044709;28;19944;-74
2022/12/25 06:42:40;;;;;;;;;;;13.00;99.90;;;;;;5039047;28;20375;-73
2022/12/25 06:45:06;;;;;;;;;;;13.00;99.90;;;;;;5032918;28;19913;-74
2022/12/25 06:47:31;;;;;;;;;;;12.90;99.90;;;;;;5031583;28;19938;-74
2022/12/25 06:49:57;;;;;;;;;;;12.80;99.90;;;;;;5043554;28;19917;-73
2022/12/25 06:52:22;;;;;;;;;;;12.80;99.90;;;;;;5044690;28;19924;-75
2022/12/25 06:54:48;;;;;;;;;;;12.70;99.90;;;;;;5043406;28;21589;-74
2022/12/25 06:57:13;;;;;;;;;;;12.80;99.90;;;;;;5038868;28;20485;-73
2022/12/25 06:59:38;;;;;;;;;;;12.80;99.90;;;;;;5043291;28;20578;-74
2022/12/25 07:02:04;;;;;;;;;;;12.70;99.90;;;;;;5044916;28;20035;-74
2022/12/25 07:04:34;;;;;;;;;;;12.70;99.90;;;;;;5044326;28;20122;-73
2022/12/25 07:07:00;;;;;;;;;;;12.70;99.90;;;;;;5042696;28;20439;-72
2022/12/25 07:09:26;;;;;;;;;;;12.60;99.90;;;;;;5044925;28;19916;-73
2022/12/25 07:11:51;;;;;;;;;;;12.50;99.90;;;;;;5044442;28;20556;-73
2022/12/25 07:14:18;;;;;;;;;;;12.60;99.90;;;;;;5039011;28;20218;-74
2022/12/25 07:16:43;;;;;;;;;;;12.60;99.90;;;;;;5044664;28;20019;-73
2022/12/25 07:19:09;;;;;;;;;;;12.50;99.90;;;;;;5043422;28;19921;-73
2022/12/25 07:21:34;;;;;;;;;;;12.50;99.90;;;;;;5045364;28;19913;-73
2022/12/25 07:24:00;;;;;;;;;;;12.50;99.90;;;;;;5044978;28;20448;-73
2022/12/25 07:26:25;;;;;;;;;;;12.40;99.90;;;;;;5045067;28;19923;-74
2022/12/25 07:28:51;;;;;;;;;;;12.50;99.90;;;;;;5042901;28;20310;-74
2022/12/25 07:31:16;;;;;;;;;;;12.30;99.90;;;;;;5043350;28;19960;-73
2022/12/25 07:33:42;;;;;;;;;;;12.20;99.90;;;;;;5040641;28;20002;-74
2022/12/25 07:36:08;;;;;;;;;;;12.30;99.90;;;;;;5044999;28;19916;-74
2022/12/25 07:38:33;;;;;;;;;;;12.30;99.90;;;;;;5040851;28;19913;-73
2022/12/25 07:40:59;;;;;;;;;;;12.20;99.90;;;;;;5041786;28;19913;-74
2022/12/25 07:43:25;;;;;;;;;;;12.20;99.90;;;;;;5043920;28;20333;-74
2022/12/25 07:45:54;;;;;;;;;;;12.20;99.90;;;;;;5043584;28;19913;-73
2022/12/25 07:48:19;;;;;;;;;;;12.10;99.90;;;;;;5040137;28;19924;-74
2022/12/25 07:50:45;;;;;;;;;;;12.00;99.90;;;;;;5041027;28;19912;-74
2022/12/25 07:53:10;;;;;;;;;;;12.10;99.90;;;;;;5041866;28;20370;-74
2022/12/25 07:55:36;;;;;;;;;;;12.10;99.90;;;;;;5041823;28;19917;-72
2022/12/25 07:58:01;;;;;;;;;;;12.00;99.90;;;;;;5042465;28;19919;-74
2022/12/25 08:00:31;;;;;;;;;;;12.00;99.90;;;;;;5040714;28;19921;-73
2022/12/25 08:02:57;;;;;;;;;;;11.90;99.90;;;;;;5038814;28;19968;-73
2022/12/25 08:05:22;;;;;;;;;;;11.80;99.90;;;;;;5040519;28;19960;-75
2022/12/25 08:07:50;;;;;;;;;;;11.70;99.90;;;;;;5040472;28;19948;-74
2022/12/25 08:10:16;;;;;;;;;;;11.60;99.90;;;;;;5054357;28;19970;-74
2022/12/25 08:12:41;;;;;;;;;;;11.40;99.90;;;;;;5050311;28;19909;-75
2022/12/25 08:15:07;;;;;;;;;;;11.50;99.90;;;;;;5050996;28;20331;-74
2022/12/25 08:17:33;;;;;;;;;;;11.60;99.90;;;;;;5047635;28;19916;-74
2022/12/25 08:19:59;;;;;;;;;;;11.50;99.90;;;;;;5050548;28;19990;-73
2022/12/25 08:22:24;;;;;;;;;;;11.50;99.90;;;;;;5054280;28;20481;-74
2022/12/25 08:24:50;;;;;;;;;;;11.50;99.90;;;;;;5046674;28;19984;-75
2022/12/25 08:27:15;;;;;;;;;;;11.50;99.90;;;;;;5041378;28;20243;-74
2022/12/25 08:29:42;;;;;;;;;;;11.50;99.90;;;;;;5040875;28;19938;-74
2022/12/25 08:32:07;;;;;;;;;;;11.50;99.90;;;;;;5042646;28;19917;-74
2022/12/25 08:34:33;;;;;;;;;;;11.40;99.90;;;;;;5039910;28;19916;-74
2022/12/25 08:36:58;;;;;;;;;;;11.40;99.90;;;;;;5042932;28;19909;-72
2022/12/25 08:39:24;;;;;;;;;;;11.40;99.90;;;;;;5041604;28;19923;-74
2022/12/25 08:41:49;;;;;;;;;;;11.50;99.90;;;;;;5042231;28;19948;-74
2022/12/25 08:44:15;;;;;;;;;;;11.60;99.90;;;;;;5040734;28;19916;-74
2022/12/25 08:46:40;;;;;;;;;;;11.60;99.90;;;;;;5040097;28;19909;-74
2022/12/25 08:49:06;;;;;;;;;;;11.60;99.90;;;;;;5040636;28;19943;-73
2022/12/25 08:51:31;;;;;;;;;;;11.60;99.90;;;;;;5040423;28;19913;-73
2022/12/25 08:53:58;;;;;;;;;;;11.50;99.90;;;;;;5038763;28;20299;-74
2022/12/25 08:56:23;;;;;;;;;;;11.50;99.90;;;;;;5042107;28;19909;-73
2022/12/25 08:58:49;;;;;;;;;;;11.50;99.90;;;;;;5039081;28;19970;-74
2022/12/25 09:01:14;;;;;;;;;;;11.50;99.90;;;;;;5030232;28;19923;-74
2022/12/25 09:03:40;;;;;;;;;;;11.60;99.90;;;;;;5041909;28;19929;-74
2022/12/25 09:06:08;;;;;;;;;;;11.70;99.90;;;;;;5044201;28;19917;-73
2022/12/25 09:08:34;;;;;;;;;;;11.70;99.90;;;;;;5042511;28;19913;-74
2022/12/25 09:11:02;;;;;;;;;;;11.70;99.90;;;;;;5041306;28;19916;-73
2022/12/25 09:13:28;;;;;;;;;;;11.70;99.90;;;;;;5040905;28;19912;-74
2022/12/25 09:15:53;;;;;;;;;;;11.70;99.90;;;;;;5041913;28;19920;-75
2022/12/25 09:18:19;;;;;;;;;;;11.80;99.90;;;;;;5040002;28;20004;-75
2022/12/25 09:20:44;;;;;;;;;;;11.80;99.90;;;;;;5041595;28;19913;-74
2022/12/25 09:23:10;;;;;;;;;;;11.80;99.90;;;;;;5039726;28;19952;-73
2022/12/25 09:25:35;;;;;;;;;;;11.90;99.90;;;;;;5040697;28;19917;-75
2022/12/25 09:28:01;;;;;;;;;;;11.90;99.90;;;;;;5038129;28;19967;-73
2022/12/25 09:30:26;;;;;;;;;;;12.10;99.90;;;;;;5042434;28;19919;-74
2022/12/25 09:32:52;;;;;;;;;;;12.10;99.90;;;;;;5036233;28;19925;-73
2022/12/25 09:35:17;;;;;;;;;;;12.10;99.90;;;;;;5037736;28;19916;-73
2022/12/25 09:37:43;;;;;;;;;;;12.10;99.90;;;;;;5042451;28;20374;-74
2022/12/25 09:40:18;;;;;;;;;;;12.10;99.90;;;;;;5042750;28;19928;-74
2022/12/25 09:42:44;;;;;;;;;;;12.20;99.90;;;;;;5039292;28;20586;-73
2022/12/25 09:45:12;;;;;;;;;;;12.00;99.90;;;;;;5041292;28;20378;-75
2022/12/25 09:47:39;;;;;;;;;;;12.00;99.90;;;;;;5041378;28;20294;-74
2022/12/25 09:50:14;;;;;;;;;;;12.00;99.90;;;;;;5043489;28;19924;-73
2022/12/25 09:52:42;;;;;;;;;;;12.10;99.90;;;;;;5045841;28;19917;-76
2022/12/25 09:55:11;;;;;;;;;;;12.00;99.90;;;;;;5043956;28;19916;-76
2022/12/25 09:57:37;;;;;;;;;;;12.00;99.90;;;;;;5045373;28;19931;-75
2022/12/25 10:00:03;;;;;;;;;;;12.10;99.90;;;;;;5045885;28;20467;-76
2022/12/25 10:02:34;;;;;;;;;;;12.00;99.90;;;;;;5044135;28;19913;-76
2022/12/25 10:05:07;;;;;;;;;;;12.00;99.90;;;;;;5043590;28;19999;-75
2022/12/25 10:07:34;;;;;;;;;;;12.20;99.90;;;;;;5038041;28;19940;-75
2022/12/25 10:10:19;;;;;;;;;;;12.20;99.90;;;;;;5036876;28;20425;-75
2022/12/25 10:12:51;;;;;;;;;;;12.30;99.90;;;;;;5041478;28;19909;-75
2022/12/25 10:15:34;;;;;;;;;;;12.30;99.90;;;;;;5039187;28;19920;-75
2022/12/25 10:18:07;;;;;;;;;;;12.10;99.90;;;;;;5045446;28;20329;-74
2022/12/25 10:20:36;;;;;;;;;;;12.10;99.90;;;;;;5048182;28;19913;-75
2022/12/25 10:23:04;;;;;;;;;;;12.20;99.90;;;;;;5039492;28;20021;-74
2022/12/25 10:25:30;;;;;;;;;;;12.10;99.90;;;;;;5046286;28;20295;-74
2022/12/25 10:27:58;;;;;;;;;;;12.20;99.90;;;;;;5042611;28;20507;-74
2022/12/25 10:30:25;;;;;;;;;;;12.20;99.90;;;;;;5037755;28;19909;-76
2022/12/25 10:32:51;;;;;;;;;;;12.30;99.90;;;;;;5043455;28;20758;-75
2022/12/25 10:35:20;;;;;;;;;;;12.20;99.90;;;;;;5022328;28;19917;-75
2022/12/25 10:37:55;;;;;;;;;;;12.20;99.90;;;;;;5049254;28;19916;-75
2022/12/25 10:40:20;;;;;;;;;;;12.30;99.90;;;;;;5051493;28;19995;-75
2022/12/25 10:42:48;;;;;;;;;;;12.30;99.90;;;;;;5049737;28;19952;-74
2022/12/25 10:45:14;;;;;;;;;;;12.20;99.90;;;;;;5045066;28;19913;-76
2022/12/25 10:47:41;;;;;;;;;;;12.10;99.90;;;;;;5040956;28;19913;-76
2022/12/25 10:50:27;;;;;;;;;;;12.30;99.90;;;;;;5045448;28;19916;-76
2022/12/25 10:52:52;;;;;;;;;;;12.30;99.90;;;;;;5044504;28;20398;-76
2022/12/25 10:55:19;;;;;;;;;;;12.20;99.90;;;;;;5034753;28;19913;-76
2022/12/25 10:57:45;;;;;;;;;;;12.10;99.90;;;;;;5037261;28;19913;-76
2022/12/25 11:00:24;;;;;;;;;;;12.30;99.90;;;;;;5047228;28;19916;-77
2022/12/25 11:02:50;;;;;;;;;;;12.30;99.90;;;;;;5040623;28;19913;-76
2022/12/25 11:05:31;;;;;;;;;;;12.40;99.90;;;;;;5044474;28;19959;-76
2022/12/25 11:07:59;;;;;;;;;;;12.40;99.90;;;;;;5038287;28;19919;-76
2022/12/25 11:10:30;;;;;;;;;;;12.20;99.90;;;;;;5043548;28;20415;-76
2022/12/25 11:12:56;;;;;;;;;;;12.30;99.90;;;;;;5033880;28;19920;-75
2022/12/25 11:15:29;;;;;;;;;;;12.30;99.90;;;;;;5047366;28;19913;-75
2022/12/25 11:17:55;;;;;;;;;;;12.40;99.90;;;;;;5039105;28;20286;-78
2022/12/25 11:20:21;;;;;;;;;;;12.60;99.90;;;;;;5041888;28;20424;-76
2022/12/25 11:22:47;;;;;;;;;;;12.60;99.90;;;;;;5041561;28;19920;-75
2022/12/25 11:25:14;;;;;;;;;;;12.70;99.90;;;;;;5042795;28;20015;-77
2022/12/25 11:27:39;;;;;;;;;;;12.80;99.90;;;;;;5042752;28;19974;-76
2022/12/25 11:30:05;;;;;;;;;;;13.00;99.90;;;;;;5036276;28;19913;-75
2022/12/25 11:32:34;;;;;;;;;;;13.20;99.90;;;;;;5037080;28;19916;-75
2022/12/25 11:35:00;;;;;;;;;;;13.30;99.90;;;;;;5039080;28;20526;-74
2022/12/25 11:37:41;;;;;;;;;;;13.10;99.90;;;;;;5044851;28;19912;-75
2022/12/25 11:40:13;;;;;;;;;;;13.10;99.90;;;;;;5044269;28;19982;-77
2022/12/25 11:42:40;;;;;;;;;;;13.30;99.90;;;;;;5042004;28;19985;-75
2022/12/25 11:45:06;;;;;;;;;;;13.50;99.90;;;;;;5039232;28;19916;-73
2022/12/25 11:47:50;;;;;;;;;;;13.50;99.90;;;;;;5039591;28;19913;-75
2022/12/25 11:50:22;;;;;;;;;;;13.70;99.90;;;;;;5038721;28;19971;-76
2022/12/25 11:52:48;;;;;;;;;;;13.70;99.90;;;;;;5040056;28;19909;-77
2022/12/25 11:55:32;;;;;;;;;;;13.90;99.90;;;;;;5041462;28;19916;-76
2022/12/25 11:58:00;;;;;;;;;;;13.70;99.90;;;;;;5040178;28;20003;-77
2022/12/25 12:00:27;;;;;;;;;;;13.40;99.90;;;;;;5042604;28;20067;-77
2022/12/25 12:03:05;;;;;;;;;;;13.40;99.90;;;;;;5036987;28;19913;-77
2022/12/25 12:05:38;;;;;;;;;;;13.30;99.90;;;;;;5038632;28;19909;-76
2022/12/25 12:08:04;;;;;;;;;;;13.40;99.90;;;;;;5039256;28;20491;-76
2022/12/25 12:10:41;;;;;;;;;;;13.50;99.90;;;;;;5040468;28;19923;-76
2022/12/25 12:13:12;;;;;;;;;;;13.60;99.90;;;;;;5037200;28;19917;-77
2022/12/25 12:15:42;;;;;;;;;;;13.60;99.90;;;;;;5039039;28;19924;-77
2022/12/25 12:18:17;;;;;;;;;;;13.50;99.90;;;;;;5038665;28;19913;-76
2022/12/25 12:20:43;;;;;;;;;;;13.60;99.90;;;;;;5042933;28;19988;-77
2022/12/25 12:23:15;;;;;;;;;;;13.70;99.90;;;;;;5040141;28;19908;-76
2022/12/25 12:25:41;;;;;;;;;;;13.60;99.90;;;;;;5033231;28;20007;-76
2022/12/25 12:28:21;;;;;;;;;;;13.60;99.90;;;;;;5040975;28;19924;-77
2022/12/25 12:31:01;;;;;;;;;;;13.80;99.90;;;;;;5034088;28;19913;-77
2022/12/25 12:33:28;;;;;;;;;;;13.80;99.90;;;;;;5037466;28;19913;-76
2022/12/25 12:35:54;;;;;;;;;;;13.80;99.90;;;;;;5043907;28;19967;-75
2022/12/25 12:38:21;;;;;;;;;;;13.70;99.90;;;;;;5041509;28;20446;-76
2022/12/25 12:41:00;;;;;;;;;;;13.80;99.90;;;;;;5040940;28;20015;-76
2022/12/25 12:43:26;;;;;;;;;;;13.70;99.90;;;;;;5038355;28;19927;-77
2022/12/25 12:45:55;;;;;;;;;;;13.70;99.90;;;;;;5044166;28;19924;-76
2022/12/25 12:48:24;;;;;;;;;;;13.70;99.90;;;;;;5038369;28;20334;-74
2022/12/25 12:50:59;;;;;;;;;;;13.60;99.90;;;;;;5034183;28;19935;-76
2022/12/25 12:53:27;;;;;;;;;;;13.60;99.90;;;;;;5034056;28;19917;-76
2022/12/25 12:55:53;;;;;;;;;;;13.70;99.90;;;;;;5039032;28;19913;-77
2022/12/25 12:58:32;;;;;;;;;;;13.70;99.90;;;;;;5035174;28;19917;-76
2022/12/25 13:01:10;;;;;;;;;;;13.70;99.90;;;;;;5032447;28;20626;-76
2022/12/25 13:03:36;;;;;;;;;;;13.90;99.90;;;;;;5029592;28;19979;-77
2022/12/25 13:06:07;;;;;;;;;;;13.90;99.90;;;;;;5040592;28;19912;-76
2022/12/25 13:08:45;;;;;;;;;;;14.00;99.90;;;;;;5035171;28;20354;-76
2022/12/25 13:11:18;;;;;;;;;;;14.00;99.90;;;;;;5044238;28;19963;-77
2022/12/25 13:13:44;;;;;;;;;;;14.00;99.90;;;;;;5041157;28;20498;-75
2022/12/25 13:16:16;;;;;;;;;;;14.00;99.90;;;;;;5041164;28;19913;-76
2022/12/25 13:18:42;;;;;;;;;;;13.90;99.90;;;;;;5037464;28;19920;-76
2022/12/25 13:21:14;;;;;;;;;;;13.90;99.90;;;;;;5037021;28;19913;-76
2022/12/25 13:23:40;;;;;;;;;;;14.00;99.90;;;;;;5038275;28;20689;-76
2022/12/25 13:26:15;;;;;;;;;;;13.90;99.90;;;;;;5046821;28;19910;-76
2022/12/25 13:28:41;;;;;;;;;;;14.00;99.90;;;;;;5047949;28;19920;-77
2022/12/25 13:31:23;;;;;;;;;;;14.30;99.90;;;;;;5042090;28;19917;-77
2022/12/25 13:33:49;;;;;;;;;;;14.20;99.90;;;;;;5042380;28;19943;-77
2022/12/25 13:36:15;;;;;;;;;;;14.40;99.90;;;;;;5037864;28;19909;-77
2022/12/25 13:38:44;;;;;;;;;;;14.50;99.90;;;;;;5036399;28;19939;-76
2022/12/25 13:43:56;;;;;;;;;;;14.40;99.90;;;;;;5032858;28;20322;-75
2022/12/25 13:46:24;;;;;;;;;;;14.30;99.90;;;;;;5041792;28;19913;-77
2022/12/25 13:48:56;;;;;;;;;;;14.50;99.90;;;;;;5041080;28;19924;-76
2022/12/25 13:51:21;;;;;;;;;;;14.40;99.90;;;;;;5043222;28;19912;-77
2022/12/25 13:53:47;;;;;;;;;;;14.60;99.90;;;;;;5041751;28;19909;-77
2022/12/25 13:56:14;;;;;;;;;;;14.80;99.90;;;;;;5042932;28;19960;-76
2022/12/25 13:58:40;;;;;;;;;;;14.90;99.90;;;;;;5035138;28;19959;-77
2022/12/25 14:01:05;;;;;;;;;;;14.90;99.90;;;;;;5040250;28;19913;-76
2022/12/25 14:03:30;;;;;;;;;;;14.90;99.90;;;;;;5039096;28;19928;-75
2022/12/25 14:06:00;;;;;;;;;;;14.90;99.90;;;;;;5033561;28;19972;-76
2022/12/25 14:08:27;;;;;;;;;;;15.00;99.90;;;;;;5041608;28;19919;-76
2022/12/25 14:10:53;;;;;;;;;;;14.90;99.90;;;;;;5037477;28;20062;-76
2022/12/25 14:13:19;;;;;;;;;;;14.90;99.90;;;;;;5034492;28;20663;-76
2022/12/25 14:15:46;;;;;;;;;;;14.80;99.90;;;;;;5039575;28;20390;-78
2022/12/25 14:18:16;;;;;;;;;;;14.80;99.90;;;;;;5046019;28;19978;-76
2022/12/25 14:20:55;;;;;;;;;;;14.60;99.90;;;;;;5042490;28;19919;-77
2022/12/25 14:23:20;;;;;;;;;;;14.70;99.90;;;;;;5040660;28;20321;-78
2022/12/25 14:25:46;;;;;;;;;;;14.60;99.90;;;;;;5049070;28;20045;-79
2022/12/25 14:28:19;;;;;;;;;;;14.50;99.90;;;;;;5042212;28;20470;-77
2022/12/25 14:30:45;;;;;;;;;;;14.40;99.90;;;;;;5039098;28;19910;-77
2022/12/25 14:33:18;;;;;;;;;;;14.50;99.90;;;;;;5044794;28;20462;-77
2022/12/25 14:35:44;;;;;;;;;;;14.20;99.90;;;;;;5047631;28;20268;-78
2022/12/25 14:38:31;;;;;;;;;;;14.30;99.90;;;;;;5045828;28;19968;-78
2022/12/25 14:40:57;;;;;;;;;;;14.30;99.90;;;;;;5038312;28;19921;-77
2022/12/25 14:43:24;;;;;;;;;;;14.30;99.90;;;;;;5040521;28;19916;-77
2022/12/25 14:45:54;;;;;;;;;;;14.40;99.90;;;;;;5051253;28;20307;-77
2022/12/25 14:48:21;;;;;;;;;;;14.40;99.90;;;;;;5048258;28;20314;-77
2022/12/25 14:51:07;;;;;;;;;;;14.50;99.90;;;;;;5051714;28;19916;-77
2022/12/25 14:53:47;;;;;;;;;;;14.80;99.90;;;;;;5045337;28;19963;-76
2022/12/25 14:56:17;;;;;;;;;;;14.90;99.90;;;;;;5043878;28;20047;-77
2022/12/25 14:58:48;;;;;;;;;;;15.10;99.90;;;;;;5055237;28;20562;-78
2022/12/25 15:01:34;;;;;;;;;;;15.10;99.90;;;;;;5059304;28;19912;-78
2022/12/25 15:04:03;;;;;;;;;;;15.00;99.90;;;;;;5050213;28;19964;-77
2022/12/25 15:06:28;;;;;;;;;;;15.20;99.90;;;;;;5052208;28;19970;-77
2022/12/25 15:08:55;;;;;;;;;;;15.30;99.90;;;;;;5039016;28;19917;-78
2022/12/25 15:11:22;;;;;;;;;;;15.30;99.90;;;;;;5045048;28;20280;-78
2022/12/25 15:13:48;;;;;;;;;;;15.40;99.90;;;;;;5042945;28;19954;-78
2022/12/25 15:16:16;;;;;;;;;;;15.40;99.90;;;;;;5040240;28;19917;-77
2022/12/25 15:18:43;;;;;;;;;;;15.50;99.90;;;;;;5044077;28;19935;-77
2022/12/25 15:21:17;;;;;;;;;;;15.50;99.90;;;;;;5048744;28;19913;-76
2022/12/25 15:23:43;;;;;;;;;;;15.80;99.90;;;;;;5037355;28;20020;-77
2022/12/25 15:26:11;;;;;;;;;;;15.90;99.90;;;;;;5040831;28;19974;-77
2022/12/25 15:28:37;;;;;;;;;;;16.00;99.90;;;;;;5048792;28;19924;-77
2022/12/25 15:31:02;;;;;;;;;;;16.00;99.90;;;;;;5036945;28;19913;-77
2022/12/25 15:33:28;;;;;;;;;;;15.90;99.90;;;;;;5042669;28;19916;-78
2022/12/25 15:35:53;;;;;;;;;;;15.70;99.90;;;;;;5051242;28;19909;-76
2022/12/25 15:38:19;;;;;;;;;;;15.70;99.90;;;;;;5052336;28;19916;-79
2022/12/25 15:40:45;;;;;;;;;;;15.70;99.90;;;;;;5039133;28;19999;-78
2022/12/25 15:43:13;;;;;;;;;;;15.60;99.90;;;;;;5037366;28;19920;-77
2022/12/25 15:45:38;;;;;;;;;;;15.50;99.90;;;;;;5049659;28;19916;-77
2022/12/25 15:48:03;;;;;;;;;;;15.40;99.90;;;;;;5048192;28;19923;-76
2022/12/25 15:50:31;;;;;;;;;;;15.50;99.90;;;;;;5047912;28;19916;-77
2022/12/25 15:52:56;;;;;;;;;;;15.50;99.90;;;;;;5048172;28;19921;-79
2022/12/25 15:55:22;;;;;;;;;;;15.50;99.90;;;;;;5049280;28;19991;-77
2022/12/25 15:57:50;;;;;;;;;;;15.30;99.90;;;;;;5037260;28;20310;-76
2022/12/25 16:00:18;;;;;;;;;;;15.50;99.90;;;;;;5044997;28;19924;-76
2022/12/25 16:02:45;;;;;;;;;;;15.40;99.90;;;;;;5031590;28;20383;-77
2022/12/25 16:05:11;;;;;;;;;;;15.30;99.90;;;;;;5045525;28;20004;-78